sensor_id;sensor_type;location;lat;lon;timestamp;P1;durP1;ratioP1;P2;durP2;ratioP2
19189;SDS011;9727;50.200;19.038;2022-11-15T00:01:14;40.00;;;20.13;;
19189;SDS011;9727;50.200;19.038;2022-11-15T00:03:42;51.63;;;18.97;;
19189;SDS011;9727;50.200;19.038;2022-11-15T00:06:09;35.00;;;18.83;;
19189;SDS011;9727;50.200;19.038;2022-11-15T00:08:43;43.27;;;20.67;;
19189;SDS011;9727;50.200;19.038;2022-11-15T00:11:12;45.37;;;20.90;;
19189;SDS011;9727;50.200;19.038;2022-11-15T00:13:38;38.40;;;19.20;;
19189;SDS011;9727;50.200;19.038;2022-11-15T00:16:05;41.23;;;19.77;;
19189;SDS011;9727;50.200;19.038;2022-11-15T00:18:31;58.90;;;17.73;;
19189;SDS011;9727;50.200;19.038;2022-11-15T00:21:02;37.70;;;18.30;;
19189;SDS011;9727;50.200;19.038;2022-11-15T00:23:29;32.13;;;18.23;;
19189;SDS011;9727;50.200;19.038;2022-11-15T00:26:00;33.30;;;17.77;;
19189;SDS011;9727;50.200;19.038;2022-11-15T00:28:30;46.37;;;18.53;;
19189;SDS011;9727;50.200;19.038;2022-11-15T00:30:59;33.20;;;17.63;;
19189;SDS011;9727;50.200;19.038;2022-11-15T00:33:34;34.73;;;17.73;;
19189;SDS011;9727;50.200;19.038;2022-11-15T00:36:01;41.47;;;18.10;;
19189;SDS011;9727;50.200;19.038;2022-11-15T00:38:32;37.20;;;18.77;;
19189;SDS011;9727;50.200;19.038;2022-11-15T00:40:59;54.50;;;24.27;;
19189;SDS011;9727;50.200;19.038;2022-11-15T00:43:25;57.50;;;23.03;;
19189;SDS011;9727;50.200;19.038;2022-11-15T00:46:06;76.13;;;22.33;;
19189;SDS011;9727;50.200;19.038;2022-11-15T00:48:34;50.13;;;21.30;;
19189;SDS011;9727;50.200;19.038;2022-11-15T00:51:00;51.17;;;20.20;;
19189;SDS011;9727;50.200;19.038;2022-11-15T00:53:27;36.23;;;18.13;;
19189;SDS011;9727;50.200;19.038;2022-11-15T00:55:53;39.60;;;20.27;;
19189;SDS011;9727;50.200;19.038;2022-11-15T00:58:20;36.23;;;18.20;;
19189;SDS011;9727;50.200;19.038;2022-11-15T01:00:46;39.63;;;20.97;;
19189;SDS011;9727;50.200;19.038;2022-11-15T01:03:14;41.37;;;18.90;;
19189;SDS011;9727;50.200;19.038;2022-11-15T01:05:44;44.83;;;19.83;;
19189;SDS011;9727;50.200;19.038;2022-11-15T01:08:11;37.87;;;17.50;;
19189;SDS011;9727;50.200;19.038;2022-11-15T01:10:38;39.50;;;18.43;;
19189;SDS011;9727;50.200;19.038;2022-11-15T01:13:12;33.67;;;16.93;;
19189;SDS011;9727;50.200;19.038;2022-11-15T01:15:39;31.30;;;17.33;;
19189;SDS011;9727;50.200;19.038;2022-11-15T01:18:05;33.97;;;16.27;;
19189;SDS011;9727;50.200;19.038;2022-11-15T01:20:33;40.77;;;17.10;;
19189;SDS011;9727;50.200;19.038;2022-11-15T01:23:00;33.27;;;16.67;;
19189;SDS011;9727;50.200;19.038;2022-11-15T01:25:26;58.33;;;19.37;;
19189;SDS011;9727;50.200;19.038;2022-11-15T01:27:53;41.77;;;19.53;;
19189;SDS011;9727;50.200;19.038;2022-11-15T01:30:19;32.33;;;18.23;;
19189;SDS011;9727;50.200;19.038;2022-11-15T01:32:48;40.33;;;18.90;;
19189;SDS011;9727;50.200;19.038;2022-11-15T01:35:16;36.77;;;17.77;;
19189;SDS011;9727;50.200;19.038;2022-11-15T01:37:44;37.30;;;19.10;;
19189;SDS011;9727;50.200;19.038;2022-11-15T01:40:10;48.47;;;24.43;;
19189;SDS011;9727;50.200;19.038;2022-11-15T01:42:37;47.33;;;22.97;;
19189;SDS011;9727;50.200;19.038;2022-11-15T01:45:04;36.30;;;20.10;;
19189;SDS011;9727;50.200;19.038;2022-11-15T01:47:31;33.70;;;18.03;;
19189;SDS011;9727;50.200;19.038;2022-11-15T01:50:00;31.90;;;17.70;;
19189;SDS011;9727;50.200;19.038;2022-11-15T01:52:28;36.33;;;15.97;;
19189;SDS011;9727;50.200;19.038;2022-11-15T01:55:00;39.27;;;19.13;;
19189;SDS011;9727;50.200;19.038;2022-11-15T01:57:28;36.80;;;19.60;;
19189;SDS011;9727;50.200;19.038;2022-11-15T01:59:55;42.03;;;19.40;;
19189;SDS011;9727;50.200;19.038;2022-11-15T02:02:23;34.77;;;18.87;;
19189;SDS011;9727;50.200;19.038;2022-11-15T02:04:49;45.53;;;22.00;;
19189;SDS011;9727;50.200;19.038;2022-11-15T02:07:18;44.63;;;23.10;;
19189;SDS011;9727;50.200;19.038;2022-11-15T02:09:45;40.90;;;19.47;;
19189;SDS011;9727;50.200;19.038;2022-11-15T02:12:17;53.30;;;24.80;;
19189;SDS011;9727;50.200;19.038;2022-11-15T02:14:45;38.63;;;19.67;;
19189;SDS011;9727;50.200;19.038;2022-11-15T02:17:17;42.03;;;18.27;;
19189;SDS011;9727;50.200;19.038;2022-11-15T02:20:05;47.40;;;20.50;;
19189;SDS011;9727;50.200;19.038;2022-11-15T02:22:37;40.90;;;19.87;;
19189;SDS011;9727;50.200;19.038;2022-11-15T02:25:21;45.33;;;20.13;;
19189;SDS011;9727;50.200;19.038;2022-11-15T02:28:09;39.67;;;19.20;;
19189;SDS011;9727;50.200;19.038;2022-11-15T02:30:42;33.70;;;16.33;;
19189;SDS011;9727;50.200;19.038;2022-11-15T02:33:12;59.13;;;18.87;;
19189;SDS011;9727;50.200;19.038;2022-11-15T02:35:42;38.37;;;18.40;;
19189;SDS011;9727;50.200;19.038;2022-11-15T02:38:12;36.63;;;17.50;;
19189;SDS011;9727;50.200;19.038;2022-11-15T02:40:41;40.83;;;18.27;;
19189;SDS011;9727;50.200;19.038;2022-11-15T02:43:12;37.20;;;18.30;;
19189;SDS011;9727;50.200;19.038;2022-11-15T02:45:58;39.47;;;19.37;;
19189;SDS011;9727;50.200;19.038;2022-11-15T02:48:27;46.87;;;19.93;;
19189;SDS011;9727;50.200;19.038;2022-11-15T02:50:53;47.37;;;23.17;;
19189;SDS011;9727;50.200;19.038;2022-11-15T02:53:23;44.10;;;21.20;;
19189;SDS011;9727;50.200;19.038;2022-11-15T02:55:53;45.57;;;21.30;;
19189;SDS011;9727;50.200;19.038;2022-11-15T02:58:36;39.47;;;20.60;;
19189;SDS011;9727;50.200;19.038;2022-11-15T03:01:15;35.53;;;18.47;;
19189;SDS011;9727;50.200;19.038;2022-11-15T03:03:48;30.07;;;16.13;;
19189;SDS011;9727;50.200;19.038;2022-11-15T03:06:20;38.50;;;16.63;;
19189;SDS011;9727;50.200;19.038;2022-11-15T03:08:53;35.97;;;18.17;;
19189;SDS011;9727;50.200;19.038;2022-11-15T03:11:20;32.37;;;17.27;;
19189;SDS011;9727;50.200;19.038;2022-11-15T03:13:49;35.43;;;17.90;;
19189;SDS011;9727;50.200;19.038;2022-11-15T03:16:21;30.50;;;16.37;;
19189;SDS011;9727;50.200;19.038;2022-11-15T03:18:54;37.20;;;17.50;;
19189;SDS011;9727;50.200;19.038;2022-11-15T03:21:23;34.93;;;18.03;;
19189;SDS011;9727;50.200;19.038;2022-11-15T03:23:51;35.83;;;17.40;;
19189;SDS011;9727;50.200;19.038;2022-11-15T03:26:19;41.23;;;18.43;;
19189;SDS011;9727;50.200;19.038;2022-11-15T03:28:47;42.47;;;18.63;;
19189;SDS011;9727;50.200;19.038;2022-11-15T03:31:18;34.03;;;17.37;;
19189;SDS011;9727;50.200;19.038;2022-11-15T03:34:04;50.67;;;18.20;;
19189;SDS011;9727;50.200;19.038;2022-11-15T03:36:33;40.37;;;19.00;;
19189;SDS011;9727;50.200;19.038;2022-11-15T03:39:01;39.87;;;19.70;;
19189;SDS011;9727;50.200;19.038;2022-11-15T03:41:28;56.00;;;20.53;;
19189;SDS011;9727;50.200;19.038;2022-11-15T03:43:57;72.43;;;20.13;;
19189;SDS011;9727;50.200;19.038;2022-11-15T03:46:27;46.17;;;19.97;;
19189;SDS011;9727;50.200;19.038;2022-11-15T03:48:59;40.30;;;19.70;;
19189;SDS011;9727;50.200;19.038;2022-11-15T03:51:28;46.33;;;22.13;;
19189;SDS011;9727;50.200;19.038;2022-11-15T03:53:55;47.13;;;21.43;;
19189;SDS011;9727;50.200;19.038;2022-11-15T03:56:22;54.97;;;22.93;;
19189;SDS011;9727;50.200;19.038;2022-11-15T03:58:48;52.60;;;23.67;;
19189;SDS011;9727;50.200;19.038;2022-11-15T04:01:16;50.00;;;20.03;;
19189;SDS011;9727;50.200;19.038;2022-11-15T04:03:42;38.60;;;19.03;;
19189;SDS011;9727;50.200;19.038;2022-11-15T04:06:09;36.97;;;17.97;;
19189;SDS011;9727;50.200;19.038;2022-11-15T04:08:37;40.73;;;18.97;;
19189;SDS011;9727;50.200;19.038;2022-11-15T04:11:03;41.80;;;18.93;;
19189;SDS011;9727;50.200;19.038;2022-11-15T04:13:32;38.47;;;18.27;;
19189;SDS011;9727;50.200;19.038;2022-11-15T04:15:58;44.23;;;20.07;;
19189;SDS011;9727;50.200;19.038;2022-11-15T04:18:24;37.37;;;18.77;;
19189;SDS011;9727;50.200;19.038;2022-11-15T04:20:51;34.83;;;18.97;;
19189;SDS011;9727;50.200;19.038;2022-11-15T04:23:36;37.77;;;16.60;;
19189;SDS011;9727;50.200;19.038;2022-11-15T04:26:23;40.77;;;17.50;;
19189;SDS011;9727;50.200;19.038;2022-11-15T04:28:49;34.27;;;18.20;;
19189;SDS011;9727;50.200;19.038;2022-11-15T04:31:33;39.73;;;18.23;;
19189;SDS011;9727;50.200;19.038;2022-11-15T04:34:00;35.17;;;17.37;;
19189;SDS011;9727;50.200;19.038;2022-11-15T04:36:27;37.00;;;17.97;;
19189;SDS011;9727;50.200;19.038;2022-11-15T04:39:12;28.80;;;16.30;;
19189;SDS011;9727;50.200;19.038;2022-11-15T04:41:38;31.77;;;16.77;;
19189;SDS011;9727;50.200;19.038;2022-11-15T04:44:05;31.27;;;16.50;;
19189;SDS011;9727;50.200;19.038;2022-11-15T04:46:31;31.73;;;17.40;;
19189;SDS011;9727;50.200;19.038;2022-11-15T04:48:59;33.50;;;17.03;;
19189;SDS011;9727;50.200;19.038;2022-11-15T04:51:25;35.30;;;16.87;;
19189;SDS011;9727;50.200;19.038;2022-11-15T04:53:52;34.63;;;17.17;;
19189;SDS011;9727;50.200;19.038;2022-11-15T04:56:20;35.00;;;16.73;;
19189;SDS011;9727;50.200;19.038;2022-11-15T04:58:48;34.23;;;17.13;;
19189;SDS011;9727;50.200;19.038;2022-11-15T05:01:14;27.93;;;15.70;;
19189;SDS011;9727;50.200;19.038;2022-11-15T05:03:44;40.40;;;17.50;;
19189;SDS011;9727;50.200;19.038;2022-11-15T05:06:28;48.77;;;16.73;;
19189;SDS011;9727;50.200;19.038;2022-11-15T05:08:55;38.00;;;17.83;;
19189;SDS011;9727;50.200;19.038;2022-11-15T05:11:23;33.57;;;17.63;;
19189;SDS011;9727;50.200;19.038;2022-11-15T05:13:49;36.90;;;18.07;;
19189;SDS011;9727;50.200;19.038;2022-11-15T05:16:17;34.97;;;17.73;;
19189;SDS011;9727;50.200;19.038;2022-11-15T05:18:43;35.90;;;17.50;;
19189;SDS011;9727;50.200;19.038;2022-11-15T05:21:11;38.30;;;18.37;;
19189;SDS011;9727;50.200;19.038;2022-11-15T05:23:37;36.27;;;16.77;;
19189;SDS011;9727;50.200;19.038;2022-11-15T05:26:04;34.63;;;17.10;;
19189;SDS011;9727;50.200;19.038;2022-11-15T05:28:33;38.07;;;16.80;;
19189;SDS011;9727;50.200;19.038;2022-11-15T05:31:02;35.80;;;17.40;;
19189;SDS011;9727;50.200;19.038;2022-11-15T05:33:29;32.93;;;16.73;;
19189;SDS011;9727;50.200;19.038;2022-11-15T05:35:57;37.73;;;16.97;;
19189;SDS011;9727;50.200;19.038;2022-11-15T05:38:25;32.87;;;15.57;;
19189;SDS011;9727;50.200;19.038;2022-11-15T05:40:52;32.13;;;15.83;;
19189;SDS011;9727;50.200;19.038;2022-11-15T05:43:22;37.03;;;16.10;;
19189;SDS011;9727;50.200;19.038;2022-11-15T05:45:51;35.43;;;17.40;;
19189;SDS011;9727;50.200;19.038;2022-11-15T05:48:18;33.33;;;15.80;;
19189;SDS011;9727;50.200;19.038;2022-11-15T05:50:45;34.93;;;16.40;;
19189;SDS011;9727;50.200;19.038;2022-11-15T05:53:12;39.30;;;17.20;;
19189;SDS011;9727;50.200;19.038;2022-11-15T05:55:40;36.77;;;17.20;;
19189;SDS011;9727;50.200;19.038;2022-11-15T05:58:07;28.63;;;15.23;;
19189;SDS011;9727;50.200;19.038;2022-11-15T06:00:34;32.93;;;16.30;;
19189;SDS011;9727;50.200;19.038;2022-11-15T06:03:02;28.70;;;14.63;;
19189;SDS011;9727;50.200;19.038;2022-11-15T06:05:29;27.17;;;15.03;;
19189;SDS011;9727;50.200;19.038;2022-11-15T06:07:56;29.23;;;15.33;;
19189;SDS011;9727;50.200;19.038;2022-11-15T06:10:23;31.27;;;15.70;;
19189;SDS011;9727;50.200;19.038;2022-11-15T06:12:55;31.13;;;16.33;;
19189;SDS011;9727;50.200;19.038;2022-11-15T06:15:24;32.27;;;16.53;;
19189;SDS011;9727;50.200;19.038;2022-11-15T06:17:55;29.23;;;15.10;;
19189;SDS011;9727;50.200;19.038;2022-11-15T06:20:27;29.03;;;15.23;;
19189;SDS011;9727;50.200;19.038;2022-11-15T06:22:56;34.40;;;16.97;;
19189;SDS011;9727;50.200;19.038;2022-11-15T06:25:22;32.57;;;16.53;;
19189;SDS011;9727;50.200;19.038;2022-11-15T06:27:51;34.03;;;17.47;;
19189;SDS011;9727;50.200;19.038;2022-11-15T06:30:18;31.33;;;16.33;;
19189;SDS011;9727;50.200;19.038;2022-11-15T06:32:44;31.77;;;16.67;;
19189;SDS011;9727;50.200;19.038;2022-11-15T06:35:11;30.07;;;15.67;;
19189;SDS011;9727;50.200;19.038;2022-11-15T06:37:39;29.67;;;14.97;;
19189;SDS011;9727;50.200;19.038;2022-11-15T06:40:06;29.63;;;14.67;;
19189;SDS011;9727;50.200;19.038;2022-11-15T06:42:33;29.97;;;14.97;;
19189;SDS011;9727;50.200;19.038;2022-11-15T06:45:00;27.63;;;14.60;;
19189;SDS011;9727;50.200;19.038;2022-11-15T06:47:26;26.77;;;14.47;;
19189;SDS011;9727;50.200;19.038;2022-11-15T06:49:53;28.60;;;14.67;;
19189;SDS011;9727;50.200;19.038;2022-11-15T06:52:19;29.97;;;15.53;;
19189;SDS011;9727;50.200;19.038;2022-11-15T06:54:48;30.47;;;15.47;;
19189;SDS011;9727;50.200;19.038;2022-11-15T06:57:14;27.20;;;14.63;;
19189;SDS011;9727;50.200;19.038;2022-11-15T06:59:44;28.73;;;14.83;;
19189;SDS011;9727;50.200;19.038;2022-11-15T07:02:11;28.77;;;13.97;;
19189;SDS011;9727;50.200;19.038;2022-11-15T07:04:38;26.13;;;14.60;;
19189;SDS011;9727;50.200;19.038;2022-11-15T07:07:05;25.47;;;14.67;;
19189;SDS011;9727;50.200;19.038;2022-11-15T07:09:34;40.97;;;15.27;;
19189;SDS011;9727;50.200;19.038;2022-11-15T07:12:03;43.63;;;17.43;;
19189;SDS011;9727;50.200;19.038;2022-11-15T07:14:44;40.57;;;19.57;;
19189;SDS011;9727;50.200;19.038;2022-11-15T07:17:11;43.43;;;20.07;;
19189;SDS011;9727;50.200;19.038;2022-11-15T07:19:37;40.40;;;18.43;;
19189;SDS011;9727;50.200;19.038;2022-11-15T07:22:18;46.47;;;17.37;;
19189;SDS011;9727;50.200;19.038;2022-11-15T07:24:44;30.73;;;16.83;;
19189;SDS011;9727;50.200;19.038;2022-11-15T07:27:12;34.77;;;16.83;;
19189;SDS011;9727;50.200;19.038;2022-11-15T07:29:39;35.80;;;16.90;;
19189;SDS011;9727;50.200;19.038;2022-11-15T07:32:05;35.73;;;17.90;;
19189;SDS011;9727;50.200;19.038;2022-11-15T07:34:32;33.60;;;17.33;;
19189;SDS011;9727;50.200;19.038;2022-11-15T07:37:05;35.73;;;17.93;;
19189;SDS011;9727;50.200;19.038;2022-11-15T07:39:33;37.03;;;17.87;;
19189;SDS011;9727;50.200;19.038;2022-11-15T07:41:59;39.70;;;20.77;;
19189;SDS011;9727;50.200;19.038;2022-11-15T07:44:47;45.20;;;21.13;;
19189;SDS011;9727;50.200;19.038;2022-11-15T07:47:14;56.17;;;26.23;;
19189;SDS011;9727;50.200;19.038;2022-11-15T07:49:40;59.90;;;28.77;;
19189;SDS011;9727;50.200;19.038;2022-11-15T07:52:08;58.77;;;28.90;;
19189;SDS011;9727;50.200;19.038;2022-11-15T07:54:34;51.90;;;27.50;;
19189;SDS011;9727;50.200;19.038;2022-11-15T07:57:01;60.43;;;30.40;;
19189;SDS011;9727;50.200;19.038;2022-11-15T07:59:28;67.70;;;34.23;;
19189;SDS011;9727;50.200;19.038;2022-11-15T08:01:58;50.53;;;26.20;;
19189;SDS011;9727;50.200;19.038;2022-11-15T08:04:25;44.67;;;24.60;;
19189;SDS011;9727;50.200;19.038;2022-11-15T08:06:52;48.73;;;25.90;;
19189;SDS011;9727;50.200;19.038;2022-11-15T08:09:18;48.47;;;26.70;;
19189;SDS011;9727;50.200;19.038;2022-11-15T08:11:47;46.53;;;27.60;;
19189;SDS011;9727;50.200;19.038;2022-11-15T08:14:14;46.97;;;27.00;;
19189;SDS011;9727;50.200;19.038;2022-11-15T08:16:40;40.20;;;23.00;;
19189;SDS011;9727;50.200;19.038;2022-11-15T08:19:09;36.37;;;20.57;;
19189;SDS011;9727;50.200;19.038;2022-11-15T08:21:36;36.20;;;19.33;;
19189;SDS011;9727;50.200;19.038;2022-11-15T08:24:02;41.90;;;21.70;;
19189;SDS011;9727;50.200;19.038;2022-11-15T08:26:32;38.63;;;22.03;;
19189;SDS011;9727;50.200;19.038;2022-11-15T08:29:02;41.70;;;22.07;;
19189;SDS011;9727;50.200;19.038;2022-11-15T08:31:28;43.33;;;25.47;;
19189;SDS011;9727;50.200;19.038;2022-11-15T08:33:55;34.33;;;22.20;;
19189;SDS011;9727;50.200;19.038;2022-11-15T08:36:23;35.20;;;21.83;;
19189;SDS011;9727;50.200;19.038;2022-11-15T08:41:37;35.63;;;21.00;;
19189;SDS011;9727;50.200;19.038;2022-11-15T08:44:04;34.10;;;22.03;;
19189;SDS011;9727;50.200;19.038;2022-11-15T08:46:39;35.77;;;20.67;;
19189;SDS011;9727;50.200;19.038;2022-11-15T08:49:08;32.87;;;21.00;;
19189;SDS011;9727;50.200;19.038;2022-11-15T08:51:37;38.70;;;21.23;;
19189;SDS011;9727;50.200;19.038;2022-11-15T08:54:03;32.70;;;20.63;;
19189;SDS011;9727;50.200;19.038;2022-11-15T08:56:30;34.60;;;21.03;;
19189;SDS011;9727;50.200;19.038;2022-11-15T08:58:56;32.37;;;20.93;;
19189;SDS011;9727;50.200;19.038;2022-11-15T09:01:23;31.97;;;20.53;;
19189;SDS011;9727;50.200;19.038;2022-11-15T09:03:53;40.20;;;24.20;;
19189;SDS011;9727;50.200;19.038;2022-11-15T09:06:27;39.83;;;23.50;;
19189;SDS011;9727;50.200;19.038;2022-11-15T09:08:56;41.47;;;24.03;;
19189;SDS011;9727;50.200;19.038;2022-11-15T09:11:24;39.17;;;22.27;;
19189;SDS011;9727;50.200;19.038;2022-11-15T09:13:51;34.37;;;22.17;;
19189;SDS011;9727;50.200;19.038;2022-11-15T09:16:18;36.23;;;22.27;;
19189;SDS011;9727;50.200;19.038;2022-11-15T09:18:44;32.83;;;21.93;;
19189;SDS011;9727;50.200;19.038;2022-11-15T09:21:11;33.70;;;21.13;;
19189;SDS011;9727;50.200;19.038;2022-11-15T09:23:38;33.73;;;20.63;;
19189;SDS011;9727;50.200;19.038;2022-11-15T09:26:12;34.67;;;20.80;;
19189;SDS011;9727;50.200;19.038;2022-11-15T09:28:39;33.20;;;20.47;;
19189;SDS011;9727;50.200;19.038;2022-11-15T09:31:08;33.93;;;20.83;;
19189;SDS011;9727;50.200;19.038;2022-11-15T09:33:35;32.90;;;20.93;;
19189;SDS011;9727;50.200;19.038;2022-11-15T09:36:04;34.97;;;20.97;;
19189;SDS011;9727;50.200;19.038;2022-11-15T09:38:31;36.67;;;22.53;;
19189;SDS011;9727;50.200;19.038;2022-11-15T09:41:07;37.43;;;22.70;;
19189;SDS011;9727;50.200;19.038;2022-11-15T09:43:39;36.37;;;22.83;;
19189;SDS011;9727;50.200;19.038;2022-11-15T09:46:14;34.73;;;23.83;;
19189;SDS011;9727;50.200;19.038;2022-11-15T09:49:01;34.70;;;24.43;;
19189;SDS011;9727;50.200;19.038;2022-11-15T09:51:30;38.93;;;25.23;;
19189;SDS011;9727;50.200;19.038;2022-11-15T09:54:07;38.83;;;24.93;;
19189;SDS011;9727;50.200;19.038;2022-11-15T09:56:45;41.07;;;26.57;;
19189;SDS011;9727;50.200;19.038;2022-11-15T09:59:16;40.13;;;24.80;;
19189;SDS011;9727;50.200;19.038;2022-11-15T10:01:45;37.83;;;24.93;;
19189;SDS011;9727;50.200;19.038;2022-11-15T10:04:19;38.80;;;26.27;;
19189;SDS011;9727;50.200;19.038;2022-11-15T10:06:49;41.47;;;24.40;;
19189;SDS011;9727;50.200;19.038;2022-11-15T10:09:21;34.03;;;20.87;;
19189;SDS011;9727;50.200;19.038;2022-11-15T10:11:54;32.00;;;22.27;;
19189;SDS011;9727;50.200;19.038;2022-11-15T10:14:23;32.37;;;22.70;;
19189;SDS011;9727;50.200;19.038;2022-11-15T10:19:40;34.90;;;22.57;;
19189;SDS011;9727;50.200;19.038;2022-11-15T10:22:16;32.90;;;20.97;;
19189;SDS011;9727;50.200;19.038;2022-11-15T10:24:44;33.23;;;21.37;;
19189;SDS011;9727;50.200;19.038;2022-11-15T10:27:13;31.67;;;21.37;;
19189;SDS011;9727;50.200;19.038;2022-11-15T10:29:45;33.23;;;23.07;;
19189;SDS011;9727;50.200;19.038;2022-11-15T10:32:14;37.90;;;24.10;;
19189;SDS011;9727;50.200;19.038;2022-11-15T10:34:45;39.73;;;23.97;;
19189;SDS011;9727;50.200;19.038;2022-11-15T10:37:13;36.37;;;23.53;;
19189;SDS011;9727;50.200;19.038;2022-11-15T10:39:43;35.60;;;22.67;;
19189;SDS011;9727;50.200;19.038;2022-11-15T10:42:25;33.30;;;22.03;;
19189;SDS011;9727;50.200;19.038;2022-11-15T10:44:54;35.53;;;21.63;;
19189;SDS011;9727;50.200;19.038;2022-11-15T10:47:23;37.17;;;23.93;;
19189;SDS011;9727;50.200;19.038;2022-11-15T10:49:54;38.27;;;23.70;;
19189;SDS011;9727;50.200;19.038;2022-11-15T10:52:21;37.73;;;23.30;;
19189;SDS011;9727;50.200;19.038;2022-11-15T10:54:50;37.33;;;23.67;;
19189;SDS011;9727;50.200;19.038;2022-11-15T10:57:24;41.77;;;24.93;;
19189;SDS011;9727;50.200;19.038;2022-11-15T10:59:52;40.40;;;24.27;;
19189;SDS011;9727;50.200;19.038;2022-11-15T11:05:06;46.07;;;27.17;;
19189;SDS011;9727;50.200;19.038;2022-11-15T11:07:45;45.97;;;27.57;;
19189;SDS011;9727;50.200;19.038;2022-11-15T11:10:21;48.47;;;28.33;;
19189;SDS011;9727;50.200;19.038;2022-11-15T11:12:48;45.13;;;27.17;;
19189;SDS011;9727;50.200;19.038;2022-11-15T11:15:15;45.57;;;26.10;;
19189;SDS011;9727;50.200;19.038;2022-11-15T11:17:47;47.40;;;26.33;;
19189;SDS011;9727;50.200;19.038;2022-11-15T11:20:22;51.73;;;29.10;;
19189;SDS011;9727;50.200;19.038;2022-11-15T11:22:56;43.93;;;26.37;;
19189;SDS011;9727;50.200;19.038;2022-11-15T11:25:28;44.17;;;27.17;;
19189;SDS011;9727;50.200;19.038;2022-11-15T11:30:41;42.87;;;25.40;;
19189;SDS011;9727;50.200;19.038;2022-11-15T11:33:13;41.63;;;25.03;;
19189;SDS011;9727;50.200;19.038;2022-11-15T11:35:50;42.87;;;26.23;;
19189;SDS011;9727;50.200;19.038;2022-11-15T11:38:22;45.17;;;26.00;;
19189;SDS011;9727;50.200;19.038;2022-11-15T11:40:56;46.43;;;26.10;;
19189;SDS011;9727;50.200;19.038;2022-11-15T11:43:27;46.63;;;26.40;;
19189;SDS011;9727;50.200;19.038;2022-11-15T11:46:09;44.13;;;26.03;;
19189;SDS011;9727;50.200;19.038;2022-11-15T11:48:40;48.83;;;27.10;;
19189;SDS011;9727;50.200;19.038;2022-11-15T11:51:20;48.37;;;27.93;;
19189;SDS011;9727;50.200;19.038;2022-11-15T11:53:50;47.57;;;28.53;;
19189;SDS011;9727;50.200;19.038;2022-11-15T11:56:22;49.80;;;28.97;;
19189;SDS011;9727;50.200;19.038;2022-11-15T11:58:49;48.63;;;28.27;;
19189;SDS011;9727;50.200;19.038;2022-11-15T12:01:20;51.53;;;28.93;;
19189;SDS011;9727;50.200;19.038;2022-11-15T12:03:51;47.63;;;28.00;;
19189;SDS011;9727;50.200;19.038;2022-11-15T12:06:21;53.87;;;28.47;;
19189;SDS011;9727;50.200;19.038;2022-11-15T12:08:52;50.23;;;29.53;;
19189;SDS011;9727;50.200;19.038;2022-11-15T12:11:20;51.73;;;29.00;;
19189;SDS011;9727;50.200;19.038;2022-11-15T12:13:49;49.07;;;28.87;;
19189;SDS011;9727;50.200;19.038;2022-11-15T12:16:20;46.63;;;28.50;;
19189;SDS011;9727;50.200;19.038;2022-11-15T12:18:49;47.07;;;27.60;;
19189;SDS011;9727;50.200;19.038;2022-11-15T12:21:20;47.70;;;27.40;;
19189;SDS011;9727;50.200;19.038;2022-11-15T12:23:53;46.97;;;27.97;;
19189;SDS011;9727;50.200;19.038;2022-11-15T12:26:22;54.57;;;29.10;;
19189;SDS011;9727;50.200;19.038;2022-11-15T12:28:52;50.17;;;28.27;;
19189;SDS011;9727;50.200;19.038;2022-11-15T12:31:24;45.13;;;26.80;;
19189;SDS011;9727;50.200;19.038;2022-11-15T12:33:56;48.03;;;26.93;;
19189;SDS011;9727;50.200;19.038;2022-11-15T12:36:32;47.10;;;25.40;;
19189;SDS011;9727;50.200;19.038;2022-11-15T12:39:19;44.40;;;25.97;;
19189;SDS011;9727;50.200;19.038;2022-11-15T12:44:56;45.27;;;26.27;;
19189;SDS011;9727;50.200;19.038;2022-11-15T12:47:25;45.70;;;27.10;;
19189;SDS011;9727;50.200;19.038;2022-11-15T12:49:52;42.30;;;26.03;;
19189;SDS011;9727;50.200;19.038;2022-11-15T12:52:19;49.83;;;27.83;;
19189;SDS011;9727;50.200;19.038;2022-11-15T12:55:14;43.97;;;26.07;;
19189;SDS011;9727;50.200;19.038;2022-11-15T12:57:53;44.73;;;26.10;;
19189;SDS011;9727;50.200;19.038;2022-11-15T13:03:27;41.17;;;24.33;;
19189;SDS011;9727;50.200;19.038;2022-11-15T13:06:08;41.83;;;24.37;;
19189;SDS011;9727;50.200;19.038;2022-11-15T13:17:36;46.60;;;25.73;;
19189;SDS011;9727;50.200;19.038;2022-11-15T13:23:00;46.47;;;25.33;;
19189;SDS011;9727;50.200;19.038;2022-11-15T13:28:37;48.33;;;25.80;;
19189;SDS011;9727;50.200;19.038;2022-11-15T13:31:18;43.83;;;26.00;;
19189;SDS011;9727;50.200;19.038;2022-11-15T13:33:49;41.77;;;24.70;;
19189;SDS011;9727;50.200;19.038;2022-11-15T13:36:37;45.37;;;26.43;;
19189;SDS011;9727;50.200;19.038;2022-11-15T13:39:32;48.17;;;28.17;;
19189;SDS011;9727;50.200;19.038;2022-11-15T13:42:02;59.40;;;30.60;;
19189;SDS011;9727;50.200;19.038;2022-11-15T13:44:30;56.00;;;30.40;;
19189;SDS011;9727;50.200;19.038;2022-11-15T13:47:18;56.87;;;31.63;;
19189;SDS011;9727;50.200;19.038;2022-11-15T13:49:49;55.53;;;30.93;;
19189;SDS011;9727;50.200;19.038;2022-11-15T13:52:18;61.30;;;33.77;;
19189;SDS011;9727;50.200;19.038;2022-11-15T13:54:47;54.73;;;31.37;;
19189;SDS011;9727;50.200;19.038;2022-11-15T13:57:23;57.03;;;32.67;;
19189;SDS011;9727;50.200;19.038;2022-11-15T13:59:52;56.67;;;32.10;;
19189;SDS011;9727;50.200;19.038;2022-11-15T14:02:34;59.47;;;32.73;;
19189;SDS011;9727;50.200;19.038;2022-11-15T14:05:13;60.23;;;33.00;;
19189;SDS011;9727;50.200;19.038;2022-11-15T14:07:52;55.70;;;31.80;;
19189;SDS011;9727;50.200;19.038;2022-11-15T14:10:25;60.27;;;31.73;;
19189;SDS011;9727;50.200;19.038;2022-11-15T14:12:54;54.03;;;30.93;;
19189;SDS011;9727;50.200;19.038;2022-11-15T14:15:26;58.70;;;32.93;;
19189;SDS011;9727;50.200;19.038;2022-11-15T14:20:49;54.63;;;30.90;;
19189;SDS011;9727;50.200;19.038;2022-11-15T14:23:36;55.80;;;31.87;;
19189;SDS011;9727;50.200;19.038;2022-11-15T14:26:03;54.60;;;32.37;;
19189;SDS011;9727;50.200;19.038;2022-11-15T14:28:30;56.60;;;32.70;;
19189;SDS011;9727;50.200;19.038;2022-11-15T14:30:58;54.00;;;31.33;;
19189;SDS011;9727;50.200;19.038;2022-11-15T14:33:27;59.77;;;33.43;;
19189;SDS011;9727;50.200;19.038;2022-11-15T14:35:56;63.77;;;35.33;;
19189;SDS011;9727;50.200;19.038;2022-11-15T14:38:31;65.87;;;36.17;;
19189;SDS011;9727;50.200;19.038;2022-11-15T14:41:01;62.13;;;37.13;;
19189;SDS011;9727;50.200;19.038;2022-11-15T14:43:28;63.20;;;37.93;;
19189;SDS011;9727;50.200;19.038;2022-11-15T14:45:55;63.33;;;36.77;;
19189;SDS011;9727;50.200;19.038;2022-11-15T14:48:22;65.90;;;36.57;;
19189;SDS011;9727;50.200;19.038;2022-11-15T14:50:48;59.47;;;35.60;;
19189;SDS011;9727;50.200;19.038;2022-11-15T14:53:24;62.77;;;36.73;;
19189;SDS011;9727;50.200;19.038;2022-11-15T14:55:54;65.20;;;36.33;;
19189;SDS011;9727;50.200;19.038;2022-11-15T14:58:22;60.90;;;35.83;;
19189;SDS011;9727;50.200;19.038;2022-11-15T15:00:52;63.77;;;36.43;;
19189;SDS011;9727;50.200;19.038;2022-11-15T15:03:21;61.03;;;35.60;;
19189;SDS011;9727;50.200;19.038;2022-11-15T15:05:47;55.70;;;32.53;;
19189;SDS011;9727;50.200;19.038;2022-11-15T15:08:14;55.87;;;32.00;;
19189;SDS011;9727;50.200;19.038;2022-11-15T15:10:46;59.83;;;33.47;;
19189;SDS011;9727;50.200;19.038;2022-11-15T15:13:15;58.73;;;34.00;;